Time;durP1;ratioP1;P1;durP2;ratioP2;P2;SDS_P1;SDS_P2;PMS_P1;PMS_P2;Temp;Humidity;BMP_temperature;BMP_pressure;BME280_temperature;BME280_humidity;BME280_pressure;Samples;Min_cycle;Max_cycle;Signal;HPM_P1;HPM_P2
2021/12/10 00:00:33;;;;;;;8.65;4.63;;;;;;;;;;5075049;28;20418;-48
2021/12/10 00:03:24;;;;;;;10.25;5.13;;;;;;;;;;5078631;28;20028;-53
2021/12/10 00:05:57;;;;;;;10.50;6.18;;;;;;;;;;5078958;28;20036;-52
2021/12/10 00:08:26;;;;;;;8.82;5.55;;;;;;;;;;5075846;28;20040;-53
2021/12/10 00:10:55;;;;;;;10.02;5.47;;;;;;;;;;5081797;28;20032;-52
2021/12/10 00:13:21;;;;;;;17.20;5.25;;;;;;;;;;5077356;28;20031;-52
2021/12/10 00:15:48;;;;;;;9.45;4.75;;;;;;;;;;5084867;28;20039;-48
2021/12/10 00:18:17;;;;;;;10.85;5.35;;;;;;;;;;5084466;28;20062;-53
2021/12/10 00:20:46;;;;;;;8.18;5.00;;;;;;;;;;5077427;28;20036;-52
2021/12/10 00:23:16;;;;;;;11.35;4.63;;;;;;;;;;5077867;28;20036;-51
2021/12/10 00:25:48;;;;;;;7.35;4.10;;;;;;;;;;5078549;28;20139;-52
2021/12/10 00:28:21;;;;;;;9.18;5.13;;;;;;;;;;5079438;28;20097;-53
2021/12/10 00:31:17;;;;;;;10.45;4.70;;;;;;;;;;5077541;28;20058;-48
2021/12/10 00:34:08;;;;;;;8.93;4.82;;;;;;;;;;5081085;28;20077;-51
2021/12/10 00:36:36;;;;;;;10.60;5.03;;;;;;;;;;5081897;28;20041;-51
2021/12/10 00:39:12;;;;;;;9.85;4.82;;;;;;;;;;5083660;28;20024;-47
2021/12/10 00:41:39;;;;;;;9.20;5.95;;;;;;;;;;5075446;28;20732;-49
2021/12/10 00:44:05;;;;;;;13.57;6.00;;;;;;;;;;5091210;28;20060;-49
2021/12/10 00:46:31;;;;;;;10.98;6.20;;;;;;;;;;5078944;28;20023;-51
2021/12/10 00:48:57;;;;;;;13.10;6.38;;;;;;;;;;5078877;28;20037;-52
2021/12/10 00:51:23;;;;;;;13.15;6.70;;;;;;;;;;5074627;28;20024;-50
2021/12/10 00:53:48;;;;;;;17.65;7.30;;;;;;;;;;5087404;28;20537;-51
2021/12/10 00:56:15;;;;;;;15.45;8.00;;;;;;;;;;5078570;28;20020;-52
2021/12/10 00:58:41;;;;;;;9.82;6.00;;;;;;;;;;5087390;28;20024;-50
2021/12/10 01:01:11;;;;;;;12.75;6.30;;;;;;;;;;5082135;28;20516;-47
2021/12/10 01:03:49;;;;;;;16.52;6.60;;;;;;;;;;5079715;28;20035;-52
2021/12/10 01:06:17;;;;;;;10.40;5.53;;;;;;;;;;5075228;28;20427;-50
2021/12/10 01:08:46;;;;;;;12.05;5.80;;;;;;;;;;5078473;28;20036;-54
2021/12/10 01:11:23;;;;;;;11.52;5.85;;;;;;;;;;5082932;28;20123;-52
2021/12/10 01:13:54;;;;;;;12.07;5.65;;;;;;;;;;5080229;28;20132;-52
2021/12/10 01:24:52;;;;;;;10.20;5.07;;;;;;;;;;5078467;28;20036;-53
2021/12/10 01:27:32;;;;;;;10.35;5.13;;;;;;;;;;5072877;28;20120;-53
2021/12/10 01:30:03;;;;;;;7.13;4.00;;;;;;;;;;5077972;28;20089;-52
2021/12/10 01:32:34;;;;;;;10.55;4.40;;;;;;;;;;5077330;28;20036;-54
2021/12/10 01:35:00;;;;;;;13.23;3.95;;;;;;;;;;5081289;28;20107;-49
2021/12/10 01:37:27;;;;;;;7.85;3.95;;;;;;;;;;5080851;28;20028;-51
2021/12/10 01:39:55;;;;;;;8.45;4.20;;;;;;;;;;5078754;28;20032;-54
2021/12/10 01:44:57;;;;;;;15.45;4.80;;;;;;;;;;5077425;28;20036;-53
2021/12/10 01:47:31;;;;;;;12.32;5.07;;;;;;;;;;5078228;28;20040;-51
2021/12/10 01:49:57;;;;;;;8.48;4.30;;;;;;;;;;5080075;28;20032;-54
2021/12/10 01:52:24;;;;;;;12.02;4.70;;;;;;;;;;5077284;28;20535;-52
2021/12/10 01:54:56;;;;;;;11.45;4.53;;;;;;;;;;5072220;28;20115;-53
2021/12/10 01:57:25;;;;;;;9.88;4.50;;;;;;;;;;5077729;28;20032;-52
2021/12/10 01:59:51;;;;;;;7.22;4.15;;;;;;;;;;5085419;28;20032;-53
2021/12/10 02:02:22;;;;;;;10.45;4.88;;;;;;;;;;5083356;28;20027;-52
2021/12/10 02:04:48;;;;;;;9.70;4.43;;;;;;;;;;5072931;28;20119;-54
2021/12/10 02:07:20;;;;;;;11.93;4.82;;;;;;;;;;5078658;28;20107;-47
2021/12/10 02:09:46;;;;;;;6.60;3.92;;;;;;;;;;5077412;28;20020;-46
2021/12/10 02:12:12;;;;;;;8.77;4.43;;;;;;;;;;5079660;28;20036;-49
2021/12/10 02:14:38;;;;;;;9.35;4.47;;;;;;;;;;5078766;28;20666;-48
2021/12/10 02:17:05;;;;;;;12.93;4.88;;;;;;;;;;5081744;28;20449;-48
2021/12/10 02:19:31;;;;;;;12.50;4.55;;;;;;;;;;5078766;28;20040;-46
2021/12/10 02:22:00;;;;;;;7.55;4.53;;;;;;;;;;5077235;28;20077;-47
2021/12/10 02:24:26;;;;;;;12.95;5.18;;;;;;;;;;5073477;28;20056;-49
2021/12/10 02:26:56;;;;;;;7.95;5.05;;;;;;;;;;5079160;28;20066;-47
2021/12/10 02:29:27;;;;;;;10.35;5.07;;;;;;;;;;5074395;28;20028;-46
2021/12/10 02:31:54;;;;;;;9.80;5.10;;;;;;;;;;5077595;28;20027;-53
2021/12/10 02:34:21;;;;;;;11.15;5.60;;;;;;;;;;5080178;28;20515;-48
2021/12/10 02:36:47;;;;;;;8.82;4.88;;;;;;;;;;5074605;28;20430;-47
2021/12/10 02:39:16;;;;;;;7.97;4.88;;;;;;;;;;5076489;28;20032;-50
2021/12/10 02:41:43;;;;;;;9.23;5.20;;;;;;;;;;5081544;28;20510;-46
2021/12/10 02:44:14;;;;;;;15.88;6.10;;;;;;;;;;5091378;28;20088;-46
2021/12/10 02:46:40;;;;;;;14.35;6.40;;;;;;;;;;5073821;28;20036;-46
2021/12/10 02:49:09;;;;;;;14.38;5.82;;;;;;;;;;5070988;28;20479;-46
2021/12/10 02:51:36;;;;;;;8.65;5.40;;;;;;;;;;5072924;28;20025;-46
2021/12/10 02:54:07;;;;;;;9.25;5.20;;;;;;;;;;5078727;28;20495;-45
2021/12/10 02:56:33;;;;;;;12.63;6.72;;;;;;;;;;5073602;28;20100;-49
2021/12/10 02:59:02;;;;;;;13.43;6.38;;;;;;;;;;5078496;28;20040;-48
2021/12/10 03:01:34;;;;;;;12.02;6.18;;;;;;;;;;5083821;28;20039;-46
2021/12/10 03:04:00;;;;;;;10.10;5.93;;;;;;;;;;5078859;28;20046;-46
2021/12/10 03:06:27;;;;;;;8.80;6.13;;;;;;;;;;5076112;28;20545;-46
2021/12/10 03:08:54;;;;;;;12.32;6.70;;;;;;;;;;5073419;28;20040;-47
2021/12/10 03:11:24;;;;;;;15.07;7.35;;;;;;;;;;5075760;28;20083;-46
2021/12/10 03:13:50;;;;;;;15.40;6.85;;;;;;;;;;5078942;28;20122;-46
2021/12/10 03:16:17;;;;;;;17.02;7.45;;;;;;;;;;5077463;28;20082;-49
2021/12/10 03:18:43;;;;;;;12.07;7.85;;;;;;;;;;5077054;28;20043;-47
2021/12/10 03:21:10;;;;;;;11.77;6.65;;;;;;;;;;5071972;28;20032;-46
2021/12/10 03:23:42;;;;;;;10.85;5.93;;;;;;;;;;5075221;28;20532;-46
2021/12/10 03:26:10;;;;;;;11.50;5.50;;;;;;;;;;5074789;28;20139;-48
2021/12/10 03:28:39;;;;;;;10.35;5.25;;;;;;;;;;5079562;28;20036;-47
2021/12/10 03:31:06;;;;;;;9.25;4.80;;;;;;;;;;5081760;28;20741;-47
2021/12/10 03:33:32;;;;;;;7.70;4.47;;;;;;;;;;5075016;28;20025;-47
2021/12/10 03:35:58;;;;;;;7.65;4.93;;;;;;;;;;5087225;28;20476;-50
2021/12/10 03:38:25;;;;;;;6.15;3.60;;;;;;;;;;5079564;28;20116;-46
2021/12/10 03:40:52;;;;;;;8.68;3.28;;;;;;;;;;5086945;28;20139;-47
2021/12/10 03:43:19;;;;;;;7.47;2.75;;;;;;;;;;5082909;28;20027;-47
2021/12/10 03:45:52;;;;;;;5.43;3.03;;;;;;;;;;5082619;28;20400;-48
2021/12/10 03:48:27;;;;;;;4.03;2.97;;;;;;;;;;5082416;28;20028;-46
2021/12/10 03:50:55;;;;;;;6.00;3.28;;;;;;;;;;5083358;28;20024;-46
2021/12/10 03:53:21;;;;;;;5.78;3.10;;;;;;;;;;5081498;28;20108;-46
2021/12/10 03:55:48;;;;;;;7.25;3.28;;;;;;;;;;5079164;28;20024;-46
2021/12/10 03:58:14;;;;;;;8.40;3.42;;;;;;;;;;5086758;28;20103;-46
2021/12/10 04:00:47;;;;;;;7.15;3.95;;;;;;;;;;5080995;28;20123;-47
2021/12/10 04:03:16;;;;;;;6.65;4.03;;;;;;;;;;5081998;28;20062;-46
2021/12/10 04:05:43;;;;;;;7.95;3.67;;;;;;;;;;5082206;28;20024;-48
2021/12/10 04:08:09;;;;;;;6.72;4.40;;;;;;;;;;5076856;28;20036;-46
2021/12/10 04:10:36;;;;;;;4.57;3.83;;;;;;;;;;5081160;28;20725;-46
2021/12/10 04:13:05;;;;;;;5.10;3.60;;;;;;;;;;5079849;28;20050;-46
2021/12/10 04:15:31;;;;;;;5.63;3.25;;;;;;;;;;5083402;28;20461;-47
2021/12/10 04:17:58;;;;;;;9.00;3.90;;;;;;;;;;5081742;28;20023;-49
2021/12/10 04:20:27;;;;;;;6.13;3.40;;;;;;;;;;5075165;28;20050;-46
2021/12/10 04:22:53;;;;;;;8.70;3.25;;;;;;;;;;5085286;28;20612;-50
2021/12/10 04:25:24;;;;;;;6.72;3.53;;;;;;;;;;5076952;28;20048;-46
2021/12/10 04:27:54;;;;;;;5.78;4.47;;;;;;;;;;5077947;28;20037;-51
2021/12/10 04:30:19;;;;;;;6.72;4.78;;;;;;;;;;5083028;28;20073;-46
2021/12/10 04:32:46;;;;;;;9.13;4.45;;;;;;;;;;5077735;28;20032;-49
2021/12/10 04:35:13;;;;;;;10.20;4.45;;;;;;;;;;5078292;28;20419;-49
2021/12/10 04:37:40;;;;;;;6.55;4.00;;;;;;;;;;5113426;27;20024;-47
2021/12/10 04:40:09;;;;;;;9.90;4.05;;;;;;;;;;5075382;28;20036;-46
2021/12/10 04:42:35;;;;;;;14.32;4.35;;;;;;;;;;5078353;28;20028;-47
2021/12/10 04:45:03;;;;;;;6.97;3.80;;;;;;;;;;5078208;28;20120;-48
2021/12/10 04:47:29;;;;;;;9.02;3.92;;;;;;;;;;5082086;28;20025;-51
2021/12/10 04:49:56;;;;;;;4.20;2.70;;;;;;;;;;5076028;28;20589;-47
2021/12/10 04:52:23;;;;;;;4.80;2.72;;;;;;;;;;5079870;28;20069;-46
2021/12/10 04:54:49;;;;;;;3.97;2.67;;;;;;;;;;5074498;28;20074;-48
2021/12/10 04:57:15;;;;;;;6.25;3.13;;;;;;;;;;5075206;28;20451;-47
2021/12/10 04:59:42;;;;;;;2.90;2.20;;;;;;;;;;5080440;28;20055;-46
2021/12/10 05:02:11;;;;;;;3.17;2.30;;;;;;;;;;5077999;28;20032;-46
2021/12/10 05:04:41;;;;;;;3.03;2.05;;;;;;;;;;5082872;28;20115;-46
2021/12/10 05:07:09;;;;;;;4.32;2.55;;;;;;;;;;5077352;28;20036;-51
2021/12/10 05:09:35;;;;;;;6.03;2.33;;;;;;;;;;5078423;28;20580;-46
2021/12/10 05:12:20;;;;;;;3.00;2.05;;;;;;;;;;5082029;28;20036;-51
2021/12/10 05:15:11;;;;;;;2.13;1.90;;;;;;;;;;5076152;28;20039;-50
2021/12/10 05:17:57;;;;;;;5.30;2.17;;;;;;;;;;5078388;28;20906;-47
2021/12/10 05:20:48;;;;;;;2.80;1.88;;;;;;;;;;5076426;28;20036;-48
2021/12/10 05:23:33;;;;;;;4.03;2.17;;;;;;;;;;5076005;28;20032;-50
2021/12/10 05:26:19;;;;;;;3.90;2.30;;;;;;;;;;5082352;28;20031;-46
2021/12/10 05:29:05;;;;;;;7.28;2.70;;;;;;;;;;5076151;28;20035;-46
2021/12/10 05:31:51;;;;;;;7.50;3.00;;;;;;;;;;5075236;28;20035;-46
2021/12/10 05:34:36;;;;;;;8.30;3.40;;;;;;;;;;5083964;28;20079;-49
2021/12/10 05:37:21;;;;;;;4.72;3.45;;;;;;;;;;5078403;28;20100;-48
2021/12/10 05:40:07;;;;;;;3.22;2.58;;;;;;;;;;5071552;28;20087;-47
2021/12/10 05:42:52;;;;;;;5.63;3.03;;;;;;;;;;5078595;28;20176;-47
2021/12/10 05:45:37;;;;;;;4.93;3.13;;;;;;;;;;5073198;28;20123;-48
2021/12/10 05:48:24;;;;;;;5.18;3.00;;;;;;;;;;5078732;28;20534;-46
2021/12/10 05:51:09;;;;;;;3.58;2.90;;;;;;;;;;5075404;28;20031;-46
2021/12/10 05:53:54;;;;;;;5.85;2.80;;;;;;;;;;5073738;28;20067;-50
2021/12/10 05:56:38;;;;;;;3.95;2.78;;;;;;;;;;5075837;28;20063;-48
2021/12/10 05:59:22;;;;;;;4.28;2.63;;;;;;;;;;5079176;28;20097;-47
2021/12/10 06:02:06;;;;;;;3.50;2.78;;;;;;;;;;5086026;28;20058;-52
2021/12/10 06:04:51;;;;;;;4.50;3.08;;;;;;;;;;5075054;28;20134;-54
2021/12/10 06:07:36;;;;;;;2.95;2.22;;;;;;;;;;5079686;28;20046;-47
2021/12/10 06:10:22;;;;;;;2.38;1.92;;;;;;;;;;5077761;28;20093;-47
2021/12/10 06:13:07;;;;;;;6.18;2.08;;;;;;;;;;5078935;28;20081;-49
2021/12/10 06:16:08;;;;;;;1.73;1.60;;;;;;;;;;5076124;28;20495;-53
2021/12/10 06:19:02;;;;;;;1.92;1.58;;;;;;;;;;5076913;28;20039;-51
2021/12/10 06:21:30;;;;;;;2.45;1.90;;;;;;;;;;5073105;28;20035;-52
2021/12/10 06:24:20;;;;;;;4.03;2.00;;;;;;;;;;5074640;28;20040;-51
2021/12/10 06:26:51;;;;;;;5.00;1.65;;;;;;;;;;5074276;28;20039;-48
2021/12/10 06:32:34;;;;;;;2.40;2.20;;;;;;;;;;5073960;28;20036;-47
2021/12/10 06:35:00;;;;;;;2.30;2.10;;;;;;;;;;5080332;28;20066;-49
2021/12/10 06:37:46;;;;;;;2.38;2.10;;;;;;;;;;5080471;28;20543;-54
2021/12/10 06:40:17;;;;;;;3.75;2.50;;;;;;;;;;5075043;28;20504;-50
2021/12/10 06:42:43;;;;;;;2.75;2.45;;;;;;;;;;5081212;28;20024;-50
2021/12/10 06:45:12;;;;;;;3.83;2.38;;;;;;;;;;5073390;28;20116;-48
2021/12/10 06:47:40;;;;;;;2.90;2.30;;;;;;;;;;5082103;28;20048;-50
2021/12/10 06:50:07;;;;;;;2.30;2.13;;;;;;;;;;5080926;28;20127;-46
2021/12/10 06:52:33;;;;;;;2.20;2.00;;;;;;;;;;5076557;28;20055;-50
2021/12/10 06:54:59;;;;;;;3.50;2.42;;;;;;;;;;5078121;28;20029;-47
2021/12/10 06:57:25;;;;;;;2.58;2.08;;;;;;;;;;5074670;28;20033;-48
2021/12/10 06:59:52;;;;;;;1.92;1.73;;;;;;;;;;5074699;28;20035;-50
2021/12/10 07:02:18;;;;;;;2.00;1.90;;;;;;;;;;5080105;28;20025;-47
2021/12/10 07:04:43;;;;;;;3.00;1.92;;;;;;;;;;5078420;28;20039;-48
2021/12/10 07:07:11;;;;;;;2.97;2.25;;;;;;;;;;5080069;28;20036;-47
2021/12/10 07:09:38;;;;;;;3.38;2.15;;;;;;;;;;5082890;28;20028;-49
2021/12/10 07:12:05;;;;;;;2.20;2.05;;;;;;;;;;5086180;28;20148;-52
2021/12/10 07:14:31;;;;;;;1.88;1.77;;;;;;;;;;5084932;28;20051;-47
2021/12/10 07:16:57;;;;;;;2.33;1.95;;;;;;;;;;5080577;28;20059;-49
2021/12/10 07:19:26;;;;;;;1.90;1.75;;;;;;;;;;5082131;28;20063;-49
2021/12/10 07:21:53;;;;;;;3.15;2.33;;;;;;;;;;5076923;28;20102;-50
2021/12/10 07:24:19;;;;;;;1.48;1.30;;;;;;;;;;5078750;28;20057;-47
2021/12/10 07:26:46;;;;;;;2.17;1.98;;;;;;;;;;5079783;28;20474;-49
2021/12/10 07:29:15;;;;;;;1.95;1.73;;;;;;;;;;5080963;28;20024;-49
2021/12/10 07:31:43;;;;;;;2.65;2.35;;;;;;;;;;5083513;28;20035;-53
2021/12/10 07:34:09;;;;;;;3.00;2.80;;;;;;;;;;5080924;28;20064;-47
2021/12/10 07:36:37;;;;;;;1.67;1.58;;;;;;;;;;5080472;28;20031;-47
2021/12/10 07:39:05;;;;;;;3.22;1.73;;;;;;;;;;5085016;28;20089;-48
2021/12/10 07:41:31;;;;;;;1.80;1.70;;;;;;;;;;5078768;28;20043;-54
2021/12/10 07:43:57;;;;;;;3.47;2.22;;;;;;;;;;5076200;28;20036;-48
2021/12/10 07:46:28;;;;;;;2.10;1.90;;;;;;;;;;5075238;28;20043;-47
2021/12/10 07:48:55;;;;;;;1.55;1.45;;;;;;;;;;5075453;28;20461;-49
2021/12/10 07:51:26;;;;;;;1.92;1.70;;;;;;;;;;5080867;28;20093;-47
2021/12/10 07:53:54;;;;;;;1.90;1.45;;;;;;;;;;5076822;28;20044;-49
2021/12/10 07:56:21;;;;;;;4.30;1.75;;;;;;;;;;5077688;28;20029;-48
2021/12/10 07:58:47;;;;;;;1.65;1.55;;;;;;;;;;5083856;28;20054;-52
2021/12/10 08:01:17;;;;;;;2.03;1.83;;;;;;;;;;5077746;28;20572;-50
2021/12/10 08:03:43;;;;;;;1.92;1.73;;;;;;;;;;5075019;28;20032;-55
2021/12/10 08:06:09;;;;;;;1.85;1.73;;;;;;;;;;5081081;28;20035;-50
2021/12/10 08:08:35;;;;;;;5.20;1.75;;;;;;;;;;5077810;28;20028;-55
2021/12/10 08:11:01;;;;;;;3.72;2.53;;;;;;;;;;5083552;28;20032;-52
2021/12/10 08:13:29;;;;;;;4.68;3.20;;;;;;;;;;5076550;28;20464;-48
2021/12/10 08:15:55;;;;;;;5.50;3.03;;;;;;;;;;5085158;28;20029;-52
2021/12/10 08:18:21;;;;;;;2.47;1.92;;;;;;;;;;5072931;28;20051;-54
2021/12/10 08:20:47;;;;;;;2.08;1.77;;;;;;;;;;5075957;28;20511;-49
2021/12/10 08:23:14;;;;;;;2.45;1.92;;;;;;;;;;5083383;28;20024;-49
2021/12/10 08:25:40;;;;;;;2.70;2.50;;;;;;;;;;5078757;28;20474;-52
2021/12/10 08:28:07;;;;;;;1.17;1.17;;;;;;;;;;5078115;28;20041;-48
2021/12/10 08:30:35;;;;;;;2.20;2.00;;;;;;;;;;5077253;28;20039;-52
2021/12/10 08:33:01;;;;;;;2.38;1.77;;;;;;;;;;5084892;28;20047;-52
2021/12/10 08:35:31;;;;;;;2.67;1.70;;;;;;;;;;5075901;28;20063;-52
2021/12/10 08:38:00;;;;;;;6.05;1.70;;;;;;;;;;5076349;28;20127;-47
2021/12/10 08:40:30;;;;;;;2.10;1.90;;;;;;;;;;5080683;28;20044;-50
2021/12/10 08:42:56;;;;;;;3.40;2.30;;;;;;;;;;5076816;28;20031;-50
2021/12/10 08:45:23;;;;;;;2.70;2.35;;;;;;;;;;5075423;27;20039;-48
2021/12/10 08:47:51;;;;;;;1.92;1.80;;;;;;;;;;5078947;28;20051;-47
2021/12/10 08:50:22;;;;;;;3.08;1.55;;;;;;;;;;5078748;28;20105;-52
2021/12/10 08:52:51;;;;;;;1.63;1.40;;;;;;;;;;5084059;28;20036;-47
2021/12/10 08:55:17;;;;;;;1.80;1.70;;;;;;;;;;5080407;28;20052;-49
2021/12/10 08:57:46;;;;;;;3.45;1.90;;;;;;;;;;5081938;28;20043;-50
2021/12/10 09:00:13;;;;;;;6.07;2.97;;;;;;;;;;5075098;28;20131;-48
2021/12/10 09:02:39;;;;;;;3.65;2.42;;;;;;;;;;5081038;28;20066;-47
2021/12/10 09:05:11;;;;;;;2.58;2.22;;;;;;;;;;5079039;28;20466;-49
2021/12/10 09:07:38;;;;;;;1.95;1.85;;;;;;;;;;5080363;28;20140;-50
2021/12/10 09:10:08;;;;;;;2.30;2.10;;;;;;;;;;5081591;28;20043;-47
2021/12/10 09:12:36;;;;;;;2.60;2.40;;;;;;;;;;5081652;28;20036;-49
2021/12/10 09:15:05;;;;;;;4.65;2.95;;;;;;;;;;5080062;28;20028;-47
2021/12/10 09:17:33;;;;;;;2.78;2.58;;;;;;;;;;5079019;28;20034;-51
2021/12/10 09:20:01;;;;;;;2.75;2.50;;;;;;;;;;5073941;28;20473;-49
2021/12/10 09:22:27;;;;;;;2.88;2.58;;;;;;;;;;5077124;28;20036;-47
2021/12/10 09:24:55;;;;;;;2.72;2.53;;;;;;;;;;5077395;28;20105;-50
2021/12/10 09:27:22;;;;;;;2.08;1.95;;;;;;;;;;5080265;28;20043;-49
2021/12/10 09:29:52;;;;;;;3.22;2.90;;;;;;;;;;5081474;28;20052;-47
2021/12/10 09:32:20;;;;;;;9.70;4.13;;;;;;;;;;5077135;28;20032;-48
2021/12/10 09:34:48;;;;;;;5.22;4.00;;;;;;;;;;5075086;28;20111;-47
2021/12/10 09:37:21;;;;;;;4.88;4.20;;;;;;;;;;5076247;28;20503;-53
2021/12/10 09:39:49;;;;;;;2.67;2.47;;;;;;;;;;5073248;28;20043;-48
2021/12/10 09:42:17;;;;;;;2.45;1.80;;;;;;;;;;5072332;28;20081;-50
2021/12/10 09:44:43;;;;;;;1.77;1.67;;;;;;;;;;5079613;28;20032;-47
2021/12/10 09:47:14;;;;;;;2.10;1.73;;;;;;;;;;5075376;28;20037;-50
2021/12/10 09:49:49;;;;;;;1.77;1.67;;;;;;;;;;5076159;28;20032;-52
2021/12/10 09:52:18;;;;;;;3.03;2.00;;;;;;;;;;5075765;28;20027;-49
2021/12/10 09:54:45;;;;;;;2.38;2.20;;;;;;;;;;5071792;28;20462;-48
2021/12/10 09:57:28;;;;;;;2.60;2.40;;;;;;;;;;5081692;28;20067;-49
2021/12/10 09:59:55;;;;;;;3.42;2.40;;;;;;;;;;5079704;28;20036;-50
2021/12/10 10:02:23;;;;;;;3.25;2.80;;;;;;;;;;5075232;28;20045;-50
2021/12/10 10:04:51;;;;;;;6.18;3.80;;;;;;;;;;5078163;28;20040;-50
2021/12/10 10:07:23;;;;;;;3.33;2.75;;;;;;;;;;5078166;28;20028;-49
2021/12/10 10:09:51;;;;;;;4.20;2.67;;;;;;;;;;5082371;28;20384;-49
2021/12/10 10:12:25;;;;;;;3.85;3.00;;;;;;;;;;5079546;28;20032;-48
2021/12/10 10:14:52;;;;;;;3.67;3.35;;;;;;;;;;5084539;28;20043;-50
2021/12/10 10:17:22;;;;;;;7.93;3.20;;;;;;;;;;5076053;28;20483;-52
2021/12/10 10:19:50;;;;;;;4.80;3.80;;;;;;;;;;5077376;28;20063;-45
2021/12/10 10:22:21;;;;;;;4.60;4.10;;;;;;;;;;5079793;28;20028;-47
2021/12/10 10:24:48;;;;;;;3.78;3.33;;;;;;;;;;5079122;28;20048;-48
2021/12/10 10:27:18;;;;;;;8.00;5.38;;;;;;;;;;5074182;28;20074;-49
2021/12/10 10:29:52;;;;;;;3.88;2.95;;;;;;;;;;5079311;28;20036;-47
2021/12/10 10:32:22;;;;;;;4.30;3.33;;;;;;;;;;5078244;28;20039;-47
2021/12/10 10:34:58;;;;;;;6.32;3.35;;;;;;;;;;5081427;28;20169;-50
2021/12/10 10:37:24;;;;;;;6.05;3.45;;;;;;;;;;5075026;28;20107;-47
2021/12/10 10:39:51;;;;;;;6.55;3.50;;;;;;;;;;5075489;28;20040;-46
2021/12/10 10:42:24;;;;;;;4.93;4.00;;;;;;;;;;5076524;28;20462;-44
2021/12/10 10:44:51;;;;;;;6.90;5.38;;;;;;;;;;5072836;28;20520;-51
2021/12/10 10:47:21;;;;;;;6.55;4.53;;;;;;;;;;5073544;28;20582;-46
2021/12/10 10:49:58;;;;;;;7.47;5.00;;;;;;;;;;5077928;28;20485;-51
2021/12/10 10:52:32;;;;;;;9.23;3.72;;;;;;;;;;5076891;28;20036;-47
2021/12/10 10:55:15;;;;;;;7.47;4.07;;;;;;;;;;5074656;28;20480;-49
2021/12/10 10:57:54;;;;;;;6.28;3.65;;;;;;;;;;5080074;28;20028;-47
2021/12/10 11:00:46;;;;;;;5.70;4.10;;;;;;;;;;5074798;28;20077;-47
2021/12/10 11:03:16;;;;;;;5.10;4.22;;;;;;;;;;5079351;28;20376;-45
2021/12/10 11:05:56;;;;;;;8.77;5.60;;;;;;;;;;5075974;28;20032;-46
2021/12/10 11:08:46;;;;;;;9.75;4.80;;;;;;;;;;5080689;28;20035;-49
2021/12/10 11:11:16;;;;;;;7.70;4.68;;;;;;;;;;5064965;28;20160;-48
2021/12/10 11:13:48;;;;;;;8.93;5.68;;;;;;;;;;5079266;28;20032;-45
2021/12/10 11:16:19;;;;;;;7.80;4.60;;;;;;;;;;5073669;28;20029;-46
2021/12/10 11:18:51;;;;;;;5.18;4.43;;;;;;;;;;5071132;28;20043;-55
2021/12/10 11:21:34;;;;;;;12.52;5.93;;;;;;;;;;5075403;28;20032;-50
2021/12/10 11:24:46;;;;;;;15.77;6.90;;;;;;;;;;5073030;28;20400;-53
2021/12/10 11:27:19;;;;;;;12.98;6.13;;;;;;;;;;5075580;28;20556;-50
2021/12/10 11:29:50;;;;;;;11.10;4.30;;;;;;;;;;5079935;28;20063;-50
2021/12/10 11:32:27;;;;;;;6.50;4.20;;;;;;;;;;5076310;28;20089;-47
2021/12/10 11:35:01;;;;;;;6.22;3.95;;;;;;;;;;5074226;28;20389;-47
2021/12/10 11:37:46;;;;;;;7.10;4.85;;;;;;;;;;5077092;28;20078;-48
2021/12/10 11:40:23;;;;;;;9.00;5.05;;;;;;;;;;5073773;28;20043;-48
2021/12/10 11:42:56;;;;;;;4.88;4.32;;;;;;;;;;5071262;28;20037;-52
2021/12/10 11:45:35;;;;;;;7.22;4.40;;;;;;;;;;5077351;28;20036;-48
2021/12/10 11:48:12;;;;;;;7.03;4.50;;;;;;;;;;5081274;28;20028;-47
2021/12/10 11:51:03;;;;;;;5.70;4.40;;;;;;;;;;5073757;28;20063;-45
2021/12/10 11:53:39;;;;;;;6.18;4.53;;;;;;;;;;5078479;28;20036;-49
2021/12/10 11:56:14;;;;;;;8.25;4.30;;;;;;;;;;5081480;28;20766;-48
2021/12/10 11:58:39;;;;;;;8.93;4.10;;;;;;;;;;5080104;28;20419;-45
2021/12/10 12:01:15;;;;;;;15.15;5.93;;;;;;;;;;5079902;28;20039;-47
2021/12/10 12:03:40;;;;;;;8.57;4.75;;;;;;;;;;5085254;28;20040;-45
2021/12/10 12:06:06;;;;;;;10.68;4.40;;;;;;;;;;5083835;28;20039;-48
2021/12/10 12:08:37;;;;;;;4.45;4.03;;;;;;;;;;5077962;28;20040;-48
2021/12/10 12:11:06;;;;;;;6.60;4.03;;;;;;;;;;5081117;28;20504;-53
2021/12/10 12:13:38;;;;;;;5.13;4.00;;;;;;;;;;5075874;28;20033;-50
2021/12/10 12:16:14;;;;;;;6.47;3.85;;;;;;;;;;5079889;28;20568;-49
2021/12/10 12:18:44;;;;;;;5.00;4.50;;;;;;;;;;5077220;28;20024;-51
2021/12/10 12:26:50;;;;;;;4.65;3.97;;;;;;;;;;5078025;28;20487;-49
2021/12/10 12:29:17;;;;;;;8.32;3.95;;;;;;;;;;5083555;28;20028;-51
2021/12/10 12:31:50;;;;;;;7.05;4.63;;;;;;;;;;5085208;28;20115;-51
2021/12/10 12:34:16;;;;;;;;;;;;;;;;;;5079660;28;20542;-50
2021/12/10 12:36:55;;;;;;;6.47;4.03;;;;;;;;;;5080418;28;20006;-47
2021/12/10 12:39:31;;;;;;;9.05;6.53;;;;;;;;;;5077182;28;20035;-48
2021/12/10 12:42:01;;;;;;;10.45;5.00;;;;;;;;;;5078868;28;20159;-51
2021/12/10 12:44:30;;;;;;;9.48;5.35;;;;;;;;;;5080931;28;20401;-48
2021/12/10 12:47:19;;;;;;;9.23;6.40;;;;;;;;;;5081140;28;20033;-45
2021/12/10 12:49:48;;;;;;;9.10;7.57;;;;;;;;;;5074759;28;20075;-47
2021/12/10 12:52:13;;;;;;;8.38;7.30;;;;;;;;;;5073597;28;20370;-46
2021/12/10 12:54:59;;;;;;;12.32;7.32;;;;;;;;;;5073459;28;20031;-48
2021/12/10 12:57:55;;;;;;;11.95;6.78;;;;;;;;;;5081267;28;20111;-49
2021/12/10 13:00:36;;;;;;;9.32;6.82;;;;;;;;;;5076490;28;20079;-48
2021/12/10 13:03:19;;;;;;;9.23;7.35;;;;;;;;;;5083695;28;20493;-52
2021/12/10 13:05:50;;;;;;;8.48;7.25;;;;;;;;;;5075084;28;20025;-49
2021/12/10 13:08:20;;;;;;;13.07;7.28;;;;;;;;;;5074827;28;20028;-49
2021/12/10 13:11:00;;;;;;;11.57;7.95;;;;;;;;;;5085583;28;20548;-50
2021/12/10 13:13:35;;;;;;;10.70;7.68;;;;;;;;;;5075875;28;20119;-52
2021/12/10 13:16:08;;;;;;;9.13;6.78;;;;;;;;;;5072644;28;20086;-50
2021/12/10 13:18:37;;;;;;;12.80;7.80;;;;;;;;;;5082393;28;20111;-47
2021/12/10 13:21:10;;;;;;;11.40;7.05;;;;;;;;;;5080731;28;20487;-46
2021/12/10 13:23:37;;;;;;;9.38;6.88;;;;;;;;;;5076977;28;20039;-48
2021/12/10 13:26:05;;;;;;;9.07;6.60;;;;;;;;;;5082041;28;20071;-47
2021/12/10 13:28:31;;;;;;;7.90;6.85;;;;;;;;;;5078918;28;20037;-47
2021/12/10 13:31:04;;;;;;;7.35;6.65;;;;;;;;;;5074734;28;20024;-50
2021/12/10 13:33:32;;;;;;;8.52;7.43;;;;;;;;;;5079138;28;20052;-46
2021/12/10 13:36:03;;;;;;;10.35;7.38;;;;;;;;;;5079158;28;20440;-50
2021/12/10 13:38:32;;;;;;;16.05;8.32;;;;;;;;;;5085643;28;20040;-47
2021/12/10 13:41:00;;;;;;;9.80;7.40;;;;;;;;;;5075931;28;20396;-48
2021/12/10 13:43:26;;;;;;;8.40;7.53;;;;;;;;;;5074559;28;20037;-47
2021/12/10 13:46:00;;;;;;;8.48;6.70;;;;;;;;;;5079113;28;20032;-46
2021/12/10 13:48:48;;;;;;;8.07;7.25;;;;;;;;;;5074609;28;20059;-48
2021/12/10 13:51:32;;;;;;;9.98;6.32;;;;;;;;;;5074776;28;20371;-47
2021/12/10 13:54:12;;;;;;;6.47;5.72;;;;;;;;;;5071538;28;20103;-52
2021/12/10 13:56:40;;;;;;;6.95;5.65;;;;;;;;;;5075380;28;20428;-45
2021/12/10 13:59:08;;;;;;;7.30;5.72;;;;;;;;;;5070309;28;20112;-51
2021/12/10 14:01:38;;;;;;;11.73;5.82;;;;;;;;;;5079332;28;20055;-49
2021/12/10 14:04:16;;;;;;;8.50;6.40;;;;;;;;;;5074783;28;20028;-48
2021/12/10 14:06:57;;;;;;;8.88;6.38;;;;;;;;;;5072103;28;20042;-46
2021/12/10 14:09:51;;;;;;;5.65;5.20;;;;;;;;;;5078762;28;20120;-47
2021/12/10 14:15:01;;;;;;;7.50;5.95;;;;;;;;;;5077561;28;20044;-51
2021/12/10 14:17:31;;;;;;;6.35;5.47;;;;;;;;;;5070984;28;20039;-49
2021/12/10 14:20:06;;;;;;;10.25;5.97;;;;;;;;;;5082046;28;20036;-49
2021/12/10 14:22:51;;;;;;;7.80;5.82;;;;;;;;;;5071031;28;20081;-45
2021/12/10 14:25:25;;;;;;;6.20;4.93;;;;;;;;;;5078206;28;20135;-51
2021/12/10 14:27:55;;;;;;;5.93;5.05;;;;;;;;;;5074852;28;20111;-46
2021/12/10 14:30:30;;;;;;;5.85;5.18;;;;;;;;;;5073548;28;20063;-52
2021/12/10 14:33:14;;;;;;;10.65;6.10;;;;;;;;;;5077124;28;20044;-47
2021/12/10 14:36:18;;;;;;;10.65;5.55;;;;;;;;;;5076532;28;20059;-49
2021/12/10 14:38:53;;;;;;;5.28;4.78;;;;;;;;;;5074162;28;20036;-47
2021/12/10 14:41:34;;;;;;;5.72;5.18;;;;;;;;;;5078844;28;20031;-47
2021/12/10 14:44:16;;;;;;;5.35;4.53;;;;;;;;;;5074394;28;20032;-54
2021/12/10 14:46:57;;;;;;;5.75;4.78;;;;;;;;;;5079896;28;20036;-48
2021/12/10 14:49:33;;;;;;;5.90;4.80;;;;;;;;;;5074783;28;20107;-50
2021/12/10 14:52:16;;;;;;;5.88;4.53;;;;;;;;;;5076162;28;20380;-48
2021/12/10 14:55:04;;;;;;;5.13;3.40;;;;;;;;;;5074870;28;20462;-51
2021/12/10 14:57:52;;;;;;;4.50;3.65;;;;;;;;;;5075083;28;20036;-48
2021/12/10 15:00:27;;;;;;;5.00;3.40;;;;;;;;;;5074749;28;20036;-50
2021/12/10 15:02:59;;;;;;;3.92;3.53;;;;;;;;;;5078865;28;20052;-48
2021/12/10 15:05:44;;;;;;;3.25;3.00;;;;;;;;;;5070205;28;20086;-47
2021/12/10 15:08:13;;;;;;;4.30;3.22;;;;;;;;;;5075008;28;20032;-47
2021/12/10 15:10:43;;;;;;;8.27;4.03;;;;;;;;;;5075370;28;20494;-47
2021/12/10 15:13:24;;;;;;;4.75;3.55;;;;;;;;;;5077994;28;20020;-52
2021/12/10 15:15:59;;;;;;;4.93;3.03;;;;;;;;;;5075970;28;20044;-48
2021/12/10 15:18:44;;;;;;;5.00;3.55;;;;;;;;;;5081297;28;20029;-54
2021/12/10 15:21:22;;;;;;;6.82;3.42;;;;;;;;;;5075441;28;20418;-47
2021/12/10 15:24:08;;;;;;;5.13;4.07;;;;;;;;;;5077330;28;20083;-47
2021/12/10 15:27:05;;;;;;;7.63;4.38;;;;;;;;;;5043711;28;20375;-49
2021/12/10 15:29:42;;;;;;;4.82;3.55;;;;;;;;;;5046506;28;20033;-47
2021/12/10 15:32:38;;;;;;;5.28;3.20;;;;;;;;;;5046685;28;20041;-46